createdAt,value
2022-08-08T00:00:52.259Z,24.19
2022-08-08T00:00:53.598Z,24.22
2022-08-08T00:01:16.921Z,24.21
2022-08-08T00:02:31.325Z,24.20
2022-08-08T00:03:13.149Z,24.20
2022-08-08T00:04:00.523Z,24.23
2022-08-08T00:04:32.895Z,24.22
2022-08-08T00:05:44.076Z,24.23
2022-08-08T00:06:40.896Z,24.23
2022-08-08T00:07:16.203Z,24.24
2022-08-08T00:08:06.526Z,24.26
2022-08-08T00:08:41.064Z,24.26
2022-08-08T00:09:20.546Z,24.20
2022-08-08T00:10:10.799Z,24.17
2022-08-08T00:10:50.715Z,24.16
2022-08-08T00:11:25.246Z,24.16
2022-08-08T00:12:07.569Z,24.14
2022-08-08T00:12:44.274Z,24.15
2022-08-08T00:14:17.620Z,24.17
2022-08-08T00:15:00.601Z,24.19
2022-08-08T00:15:56.511Z,24.21
2022-08-08T00:16:25.881Z,24.22
2022-08-08T00:17:00.740Z,24.20
2022-08-08T00:17:58.718Z,24.18
2022-08-08T00:18:38.879Z,24.17
2022-08-08T00:19:16.439Z,24.16
2022-08-08T00:20:01.763Z,24.17
2022-08-08T00:20:38.676Z,24.15
2022-08-08T00:21:11.494Z,24.16
2022-08-08T00:21:50.217Z,24.17
2022-08-08T00:22:24.726Z,24.17
2022-08-08T00:23:06.040Z,24.20
2022-08-08T00:23:47.434Z,24.18
2022-08-08T00:24:30.096Z,24.17
2022-08-08T00:25:02.702Z,24.18
2022-08-08T00:25:44.636Z,24.16
2022-08-08T00:26:21.833Z,24.17
2022-08-08T00:27:02.708Z,24.18
2022-08-08T00:27:37.806Z,24.18
2022-08-08T00:28:34.295Z,24.17
2022-08-08T00:29:11.572Z,24.16
2022-08-08T00:30:17.608Z,24.15
2022-08-08T00:31:00.680Z,24.16
2022-08-08T00:32:20.232Z,24.15
2022-08-08T00:32:44.834Z,24.14
2022-08-08T00:33:17.097Z,24.13
2022-08-08T00:34:18.222Z,24.14
2022-08-08T00:34:49.170Z,24.12
2022-08-08T00:35:39.454Z,24.11
2022-08-08T00:36:14.782Z,24.11
2022-08-08T00:36:51.603Z,24.12
2022-08-08T00:37:47.898Z,24.11
2022-08-08T00:38:44.321Z,24.09
2022-08-08T00:41:06.863Z,24.07
2022-08-08T00:41:09.170Z,24.07
2022-08-08T00:41:54.877Z,24.08
2022-08-08T00:42:29.123Z,24.10
2022-08-08T00:43:24.313Z,24.08
2022-08-08T00:44:19.172Z,24.08
2022-08-08T00:44:59.743Z,24.08
2022-08-08T00:45:34.562Z,24.08
2022-08-08T00:46:24.280Z,24.07
2022-08-08T00:47:01.979Z,24.09
2022-08-08T00:48:02.198Z,24.06
2022-08-08T00:48:59.063Z,24.06
2022-08-08T00:49:57.739Z,24.07
2022-08-08T00:50:53.277Z,24.04
2022-08-08T00:51:42.091Z,24.04
2022-08-08T00:52:25.047Z,24.03
2022-08-08T00:53:00.774Z,24.00
2022-08-08T00:53:57.170Z,23.98
2022-08-08T00:54:54.445Z,23.98
2022-08-08T00:56:03.689Z,23.97
2022-08-08T00:56:58.238Z,24.00
2022-08-08T00:57:43.972Z,24.01
2022-08-08T00:58:38.550Z,24.00
2022-08-08T00:59:18.715Z,23.98
2022-08-08T01:00:22.680Z,23.96
2022-08-08T01:01:03.109Z,24.00
2022-08-08T01:01:39.250Z,23.99
2022-08-08T01:03:58.444Z,24.01
2022-08-08T01:04:02.740Z,24.00
2022-08-08T01:04:44.784Z,23.98
2022-08-08T01:05:58.785Z,24.00
2022-08-08T01:06:27.546Z,24.00
2022-08-08T01:07:01.655Z,23.98
2022-08-08T01:07:55.234Z,23.98
2022-08-08T01:08:31.026Z,23.98
2022-08-08T01:09:34.759Z,23.96
2022-08-08T01:10:00.139Z,23.95
2022-08-08T01:10:43.681Z,23.97
2022-08-08T01:11:41.426Z,23.97
2022-08-08T01:12:12.895Z,23.92
2022-08-08T01:13:07.661Z,23.90
2022-08-08T01:13:58.111Z,23.93
2022-08-08T01:14:53.623Z,23.95
2022-08-08T01:15:44.274Z,23.94
2022-08-08T01:16:31.036Z,23.96
2022-08-08T01:17:11.891Z,23.94
2022-08-08T01:18:02.926Z,23.94
2022-08-08T01:18:52.472Z,23.94
2022-08-08T01:20:01.580Z,23.92
2022-08-08T01:20:35.710Z,23.94
2022-08-08T01:21:10.227Z,23.93
2022-08-08T01:22:12.686Z,23.96
2022-08-08T01:23:04.021Z,23.96
2022-08-08T01:24:05.528Z,23.94
2022-08-08T01:24:50.920Z,23.93
2022-08-08T01:25:42.997Z,23.93
2022-08-08T01:26:29.769Z,23.92
2022-08-08T01:27:11.106Z,23.94
2022-08-08T01:28:00.239Z,23.95
2022-08-08T01:28:33.479Z,23.96
2022-08-08T01:29:35.352Z,23.94
2022-08-08T01:30:16.524Z,23.95
2022-08-08T01:30:53.410Z,23.96
2022-08-08T01:32:13.868Z,23.96
2022-08-08T01:32:30.473Z,23.93
2022-08-08T01:33:54.354Z,23.94
2022-08-08T01:34:50.526Z,23.94
2022-08-08T01:35:29.757Z,23.93
2022-08-08T01:36:05.045Z,23.94
2022-08-08T01:36:56.011Z,23.94
2022-08-08T01:37:58.568Z,23.96
2022-08-08T01:38:30.556Z,23.93
2022-08-08T01:39:06.492Z,23.94
2022-08-08T01:39:44.646Z,23.92
2022-08-08T01:40:35.585Z,23.90
2022-08-08T01:41:11.512Z,23.94
2022-08-08T01:41:43.847Z,23.93
2022-08-08T01:42:15.715Z,23.94
2022-08-08T01:42:51.107Z,23.94
2022-08-08T01:43:40.984Z,23.94
2022-08-08T01:44:32.933Z,23.94
2022-08-08T01:45:04.648Z,23.96
2022-08-08T01:45:56.286Z,23.97
2022-08-08T01:46:39.023Z,23.96
2022-08-08T01:48:16.242Z,23.95
2022-08-08T01:48:31.291Z,23.91
2022-08-08T01:49:03.002Z,23.92
2022-08-08T01:49:43.489Z,23.93
2022-08-08T01:50:19.726Z,23.93
2022-08-08T01:50:52.882Z,23.91
2022-08-08T01:52:12.976Z,23.93
2022-08-08T01:54:11.234Z,23.93
2022-08-08T01:55:17.046Z,23.91
2022-08-08T01:55:45.378Z,23.91
2022-08-08T01:56:26.028Z,23.92
2022-08-08T01:56:29.218Z,23.92
2022-08-08T01:57:05.114Z,23.92
2022-08-08T01:58:11.158Z,23.91
2022-08-08T01:58:53.219Z,23.89
2022-08-08T02:00:01.011Z,23.91
2022-08-08T02:00:48.372Z,23.90
2022-08-08T02:01:54.592Z,23.89
2022-08-08T02:02:35.094Z,23.91
2022-08-08T02:03:56.040Z,23.89
2022-08-08T02:04:25.034Z,23.91
2022-08-08T02:05:08.992Z,23.90
2022-08-08T02:05:56.443Z,23.90
2022-08-08T02:06:49.246Z,23.89
2022-08-08T02:07:41.469Z,23.89
2022-08-08T02:08:15.724Z,23.88
2022-08-08T02:09:17.835Z,23.88
2022-08-08T02:10:11.378Z,23.88
2022-08-08T02:10:45.122Z,23.87
2022-08-08T02:11:59.909Z,23.85
2022-08-08T02:12:24.485Z,23.84
2022-08-08T02:12:58.122Z,23.83
2022-08-08T02:13:53.092Z,23.83
2022-08-08T02:14:29.715Z,23.83
2022-08-08T02:15:11.353Z,23.83
2022-08-08T02:16:02.128Z,23.81
2022-08-08T02:16:35.285Z,23.79
2022-08-08T02:17:21.423Z,23.78
2022-08-08T02:17:58.319Z,23.80
2022-08-08T02:18:48.194Z,23.82
2022-08-08T02:20:08.422Z,23.77
2022-08-08T02:21:03.172Z,23.77
2022-08-08T02:21:45.459Z,23.77
2022-08-08T02:22:46.021Z,23.78
2022-08-08T02:23:31.666Z,23.78
2022-08-08T02:24:19.826Z,23.79
2022-08-08T02:24:56.983Z,23.79
2022-08-08T02:25:33.205Z,23.80
2022-08-08T02:26:25.210Z,23.80
2022-08-08T02:27:01.062Z,23.81
2022-08-08T02:27:48.179Z,23.81
2022-08-08T02:28:39.735Z,23.80
2022-08-08T02:29:46.790Z,23.79
2022-08-08T02:30:26.537Z,23.80
2022-08-08T02:31:02.111Z,23.79
2022-08-08T02:31:58.303Z,23.77
2022-08-08T02:32:42.865Z,23.77
2022-08-08T02:33:22.331Z,23.73
2022-08-08T02:34:07.866Z,23.77
2022-08-08T02:35:08.233Z,23.76
2022-08-08T02:36:04.094Z,23.76
2022-08-08T02:36:44.673Z,23.79
2022-08-08T02:37:52.966Z,23.80
2022-08-08T02:38:25.397Z,23.78
2022-08-08T02:39:41.770Z,23.79
2022-08-08T02:40:09.544Z,23.75
2022-08-08T02:40:50.136Z,23.76
2022-08-08T02:42:03.824Z,23.77
2022-08-08T02:42:41.726Z,23.79
2022-08-08T02:44:42.640Z,23.77
2022-08-08T02:44:56.332Z,23.76
2022-08-08T02:45:54.092Z,23.76
2022-08-08T02:46:51.327Z,23.76
2022-08-08T02:48:12.390Z,23.76
2022-08-08T04:32:59.359Z,23.56
2022-08-08T04:33:41.955Z,23.55
2022-08-08T04:34:18.661Z,23.54
2022-08-08T04:34:58.491Z,23.55
2022-08-08T04:35:39.819Z,23.56
2022-08-08T04:36:20.072Z,23.56
2022-08-08T04:36:59.703Z,23.56
2022-08-08T04:37:38.428Z,23.56
2022-08-08T04:38:21.885Z,23.55
2022-08-08T04:39:47.886Z,23.54
2022-08-08T04:40:06.652Z,23.56
2022-08-08T04:40:53.392Z,23.53
2022-08-08T06:22:42.260Z,23.29
2022-08-08T06:23:17.336Z,23.29
2022-08-08T06:24:03.497Z,23.27
2022-08-08T06:24:51.098Z,23.26
2022-08-08T06:26:36.139Z,23.28
2022-08-08T08:13:17.946Z,23.40
2022-08-08T08:14:08.270Z,23.38
2022-08-08T08:14:53.759Z,23.38
2022-08-08T08:48:49.503Z,23.45
2022-08-08T08:49:34.602Z,23.45
2022-08-08T08:50:33.440Z,23.35
2022-08-08T08:53:56.086Z,23.21
2022-08-08T08:55:33.626Z,23.32
2022-08-08T08:56:25.582Z,23.32
2022-08-08T08:57:15.522Z,23.37
2022-08-08T08:57:53.197Z,23.38
2022-08-08T08:58:38.000Z,23.40
2022-08-08T08:59:15.353Z,23.45
2022-08-08T08:59:59.922Z,23.40
2022-08-08T09:01:04.968Z,23.42
2022-08-08T09:01:38.325Z,23.43
2022-08-08T09:02:21.803Z,23.42
2022-08-08T09:02:58.254Z,23.42
2022-08-08T09:03:46.504Z,23.42
2022-08-08T09:04:31.367Z,23.37
2022-08-08T09:05:49.206Z,23.38
2022-08-08T09:06:28.390Z,23.39
2022-08-08T09:07:12.618Z,23.35
2022-08-08T09:08:18.427Z,23.35
2022-08-08T09:08:52.099Z,23.33
2022-08-08T09:09:47.475Z,23.38
2022-08-08T09:10:32.299Z,23.34
2022-08-08T09:11:13.589Z,23.34
2022-08-08T09:12:01.409Z,23.38
2022-08-08T09:12:50.587Z,23.41
2022-08-08T09:13:28.212Z,23.40
2022-08-08T09:14:16.704Z,23.44
2022-08-08T09:14:55.755Z,23.46
2022-08-08T09:15:41.082Z,23.46
2022-08-08T09:16:28.960Z,23.46
2022-08-08T09:17:15.750Z,23.47
2022-08-08T09:17:55.996Z,23.47
2022-08-08T09:18:41.084Z,23.45
2022-08-08T09:19:33.941Z,23.46
2022-08-08T09:21:58.128Z,23.51
2022-08-08T09:21:59.247Z,23.48
2022-08-08T09:22:10.777Z,23.47
2022-08-08T09:22:48.128Z,23.45
2022-08-08T09:23:25.559Z,23.46
2022-08-08T09:24:04.137Z,23.43
2022-08-08T09:24:42.809Z,23.46
2022-08-08T09:25:22.740Z,23.47
2022-08-08T09:26:22.990Z,23.48
2022-08-08T09:27:20.984Z,23.47
2022-08-08T09:27:58.667Z,23.50
2022-08-08T09:28:46.504Z,23.50
2022-08-08T09:29:24.632Z,23.45
2022-08-08T09:30:10.894Z,23.46
2022-08-08T09:30:52.327Z,23.42
2022-08-08T09:31:42.554Z,23.42
2022-08-08T09:32:50.375Z,23.46
2022-08-08T09:34:28.305Z,23.44
2022-08-08T09:34:37.831Z,23.42
2022-08-08T09:35:31.746Z,23.42
2022-08-08T09:36:11.610Z,23.42
2022-08-08T09:37:34.202Z,23.40
2022-08-08T09:38:02.123Z,23.47
2022-08-08T09:38:52.785Z,23.43
2022-08-08T09:39:39.760Z,23.44
2022-08-08T09:40:24.077Z,23.49
2022-08-08T09:41:13.282Z,23.44
2022-08-08T09:42:21.397Z,23.45
2022-08-08T09:42:51.473Z,23.45
2022-08-08T09:43:40.641Z,23.47
2022-08-08T09:44:38.550Z,23.44
2022-08-08T09:45:55.298Z,23.47
2022-08-08T09:46:25.776Z,23.45
2022-08-08T09:48:04.625Z,23.47
2022-08-08T09:48:21.904Z,23.47
2022-08-08T09:49:18.045Z,23.45
2022-08-08T09:50:01.785Z,23.46
2022-08-08T09:50:44.137Z,23.43
2022-08-08T09:51:41.555Z,23.46
2022-08-08T09:52:56.840Z,23.44
2022-08-08T09:54:05.094Z,23.44
2022-08-08T09:54:46.238Z,23.45
2022-08-08T09:56:03.012Z,23.48
2022-08-08T09:56:22.185Z,23.42
2022-08-08T09:57:02.341Z,23.45
2022-08-08T09:57:46.579Z,23.43
2022-08-08T09:58:40.644Z,23.49
2022-08-08T09:59:50.731Z,23.51
2022-08-08T10:00:49.768Z,23.50
2022-08-08T10:01:59.139Z,23.51
2022-08-08T10:02:23.276Z,23.51
2022-08-08T10:03:01.195Z,23.51
2022-08-08T10:03:39.774Z,23.50
2022-08-08T10:04:41.673Z,23.48
2022-08-08T10:05:25.413Z,23.50
2022-08-08T10:06:06.880Z,23.47
2022-08-08T10:06:46.313Z,23.51
2022-08-08T10:07:35.784Z,23.51
2022-08-08T10:08:26.145Z,23.50
2022-08-08T10:09:10.034Z,23.53
2022-08-08T10:09:59.761Z,23.56
2022-08-08T10:10:50.888Z,23.52
2022-08-08T10:12:27.135Z,23.53
2022-08-08T10:12:31.139Z,23.55
2022-08-08T10:13:35.310Z,23.50
2022-08-08T10:14:34.789Z,23.51
2022-08-08T10:15:17.347Z,23.54
2022-08-08T10:16:05.484Z,23.50
2022-08-08T10:16:51.127Z,23.53
2022-08-08T10:17:57.136Z,23.52
2022-08-08T10:18:30.693Z,23.53
2022-08-08T10:19:07.110Z,23.55
2022-08-08T10:19:46.120Z,23.55
2022-08-08T10:20:51.143Z,23.50
2022-08-08T10:21:45.573Z,23.53
2022-08-08T10:22:27.090Z,23.53
2022-08-08T10:23:04.674Z,23.54
2022-08-08T10:23:41.856Z,23.56
2022-08-08T10:24:29.050Z,23.51
2022-08-08T10:25:16.664Z,23.53
2022-08-08T10:26:00.028Z,23.53
2022-08-08T10:26:56.819Z,23.50
2022-08-08T10:27:45.085Z,23.51
2022-08-08T10:28:25.522Z,23.53
2022-08-08T10:29:07.804Z,23.54
2022-08-08T10:29:58.301Z,23.51
2022-08-08T10:30:59.761Z,23.48
2022-08-08T10:31:46.411Z,23.53
2022-08-08T10:32:38.122Z,23.53
2022-08-08T10:33:18.054Z,23.55
2022-08-08T10:34:18.869Z,23.55
2022-08-08T10:34:58.725Z,23.47
2022-08-08T10:36:09.078Z,23.50
2022-08-08T10:36:36.730Z,23.49
2022-08-08T10:37:16.379Z,23.53
2022-08-08T10:37:55.599Z,23.55
2022-08-08T10:38:32.641Z,23.57
2022-08-08T10:39:10.251Z,23.54
2022-08-08T10:39:54.510Z,23.49
2022-08-08T10:40:32.474Z,23.53
2022-08-08T10:41:09.731Z,23.53
2022-08-08T10:41:59.036Z,23.54
2022-08-08T10:42:44.896Z,23.49
2022-08-08T10:43:22.865Z,23.50
2022-08-08T10:44:00.251Z,23.52
2022-08-08T10:44:43.925Z,23.50
2022-08-08T10:45:22.301Z,23.50
2022-08-08T10:46:00.406Z,23.51
2022-08-08T10:46:41.573Z,23.54
2022-08-08T10:47:21.320Z,23.57
2022-08-08T10:48:02.726Z,23.60
2022-08-08T10:48:58.513Z,23.58
2022-08-08T10:50:01.740Z,23.60
2022-08-08T10:50:36.507Z,23.62
2022-08-08T10:51:19.669Z,23.67
2022-08-08T10:52:06.160Z,23.66
2022-08-08T10:52:52.306Z,23.65
2022-08-08T10:53:56.785Z,23.63
2022-08-08T10:54:38.830Z,23.65
2022-08-08T10:55:39.635Z,23.58
2022-08-08T10:56:27.560Z,23.62
2022-08-08T10:57:33.344Z,23.64
2022-08-08T10:58:15.808Z,23.62
2022-08-08T10:59:03.023Z,23.62
2022-08-08T10:59:41.178Z,23.64
2022-08-08T11:00:53.336Z,23.62
2022-08-08T11:01:36.242Z,23.60
2022-08-08T11:02:15.000Z,23.63
2022-08-08T11:02:54.003Z,23.63
2022-08-08T11:03:36.541Z,23.63
2022-08-08T11:04:39.166Z,23.56
2022-08-08T11:05:23.411Z,23.57
2022-08-08T11:06:12.784Z,23.58
2022-08-08T11:06:58.615Z,23.56
2022-08-08T11:08:38.932Z,23.56
2022-08-08T11:08:41.048Z,23.61
2022-08-08T11:09:22.857Z,23.66
2022-08-08T11:10:08.006Z,23.65
2022-08-08T11:10:47.154Z,23.64
2022-08-08T11:11:32.379Z,23.64
2022-08-08T11:12:23.521Z,23.64
2022-08-08T11:13:28.491Z,23.66
2022-08-08T11:14:02.994Z,23.65
2022-08-08T11:15:12.785Z,23.65
2022-08-08T11:15:52.246Z,23.69
2022-08-08T11:16:38.298Z,23.65
2022-08-08T11:17:57.862Z,23.67
2022-08-08T11:18:23.354Z,23.71
2022-08-08T11:19:00.900Z,23.71
2022-08-08T11:19:39.319Z,23.64
2022-08-08T11:20:24.994Z,23.56
2022-08-08T11:21:10.327Z,23.55
2022-08-08T11:21:55.863Z,23.57
2022-08-08T11:22:34.356Z,23.60
2022-08-08T11:23:12.029Z,23.56
2022-08-08T11:24:01.605Z,23.58
2022-08-08T11:24:38.897Z,23.60
2022-08-08T11:25:16.639Z,23.64
2022-08-08T11:25:57.136Z,23.62
2022-08-08T11:26:33.873Z,23.65
2022-08-08T11:27:19.451Z,23.66
2022-08-08T11:28:00.797Z,23.67
2022-08-08T11:28:39.936Z,23.71
2022-08-08T11:29:18.226Z,23.70
2022-08-08T11:30:19.966Z,23.72
2022-08-08T11:30:57.187Z,23.75
2022-08-08T11:31:46.978Z,23.77
2022-08-08T11:32:36.466Z,23.77
2022-08-08T11:34:46.948Z,23.81
2022-08-08T11:35:42.705Z,23.76
2022-08-08T11:38:39.275Z,23.80
2022-08-08T11:38:56.089Z,23.83
2022-08-08T11:42:08.981Z,23.81
2022-08-08T11:44:07.428Z,23.77
2022-08-08T11:44:46.881Z,23.80
2022-08-08T11:45:26.922Z,23.83
2022-08-08T11:46:14.101Z,23.79
2022-08-08T11:46:56.530Z,23.81
2022-08-08T11:47:39.690Z,23.82
2022-08-08T11:48:34.691Z,23.78
2022-08-08T11:49:14.230Z,23.79
2022-08-08T11:49:51.589Z,23.79
2022-08-08T11:50:29.796Z,23.81
2022-08-08T11:51:37.299Z,23.83
2022-08-08T11:52:05.178Z,23.81
2022-08-08T11:52:45.428Z,23.82
2022-08-08T11:53:24.727Z,23.79
2022-08-08T11:54:05.098Z,23.81
2022-08-08T11:55:02.411Z,23.82
2022-08-08T11:55:51.653Z,23.84
2022-08-08T11:56:29.821Z,23.82
2022-08-08T11:57:27.638Z,23.84
2022-08-08T11:58:16.225Z,23.85
2022-08-08T11:58:54.580Z,23.82
2022-08-08T11:59:57.949Z,23.86
2022-08-08T12:00:35.106Z,23.88
2022-08-08T12:01:17.028Z,23.89
2022-08-08T12:02:21.373Z,23.86
2022-08-08T12:02:56.797Z,23.87
2022-08-08T12:03:37.190Z,23.83
2022-08-08T12:04:14.266Z,23.82
2022-08-08T12:04:51.146Z,23.84
2022-08-08T12:05:38.091Z,23.85
2022-08-08T12:06:18.786Z,23.83
2022-08-08T12:07:14.340Z,23.86
2022-08-08T12:07:56.674Z,23.85
2022-08-08T12:08:34.777Z,23.86
2022-08-08T12:09:16.830Z,23.83
2022-08-08T12:10:06.085Z,23.81
2022-08-08T12:10:52.344Z,23.86
2022-08-08T12:11:30.565Z,23.86
2022-08-08T12:12:09.241Z,23.87
2022-08-08T12:12:48.085Z,23.84
2022-08-08T12:13:38.163Z,23.85
2022-08-08T12:14:29.244Z,23.88
2022-08-08T12:15:05.810Z,23.84
2022-08-08T12:15:49.162Z,23.88
2022-08-08T12:16:31.651Z,23.89
2022-08-08T12:17:12.204Z,23.89
2022-08-08T12:17:50.932Z,23.90
2022-08-08T12:18:29.292Z,23.91
2022-08-08T12:19:14.144Z,23.86
2022-08-08T12:20:02.468Z,23.85
2022-08-08T12:20:47.911Z,23.85
2022-08-08T12:21:59.697Z,23.90
2022-08-08T12:22:40.016Z,23.87
2022-08-08T12:23:43.816Z,23.87
2022-08-08T12:24:29.895Z,23.89
2022-08-08T12:25:06.921Z,23.84
2022-08-08T12:25:52.652Z,23.83
2022-08-08T12:26:50.735Z,23.86
2022-08-08T12:27:45.632Z,23.88
2022-08-08T12:28:25.230Z,23.88
2022-08-08T12:29:04.441Z,23.89
2022-08-08T12:29:45.095Z,23.93
2022-08-08T12:30:34.109Z,23.94
2022-08-08T12:31:12.515Z,23.91
2022-08-08T12:31:53.669Z,23.92
2022-08-08T12:32:39.048Z,23.89
2022-08-08T12:33:37.656Z,23.87
2022-08-08T12:34:48.652Z,23.89
2022-08-08T12:35:29.672Z,23.91
2022-08-08T12:36:13.938Z,23.93
2022-08-08T12:36:54.460Z,23.94
2022-08-08T12:37:41.029Z,23.92
2022-08-08T12:38:18.152Z,23.89
2022-08-08T12:38:55.857Z,23.92
2022-08-08T12:40:00.721Z,23.92
2022-08-08T12:40:29.502Z,23.97
2022-08-08T12:41:33.932Z,23.99
2022-08-08T12:42:20.646Z,23.97
2022-08-08T12:42:58.814Z,24.00
2022-08-08T12:43:43.793Z,23.98
2022-08-08T12:44:32.882Z,23.97
2022-08-08T12:45:58.482Z,23.93
2022-08-08T12:46:24.924Z,23.90
2022-08-08T12:47:08.120Z,23.90
2022-08-08T12:48:04.657Z,23.91
2022-08-08T12:49:05.373Z,23.93
2022-08-08T12:49:47.074Z,23.89
2022-08-08T12:50:25.907Z,23.93
2022-08-08T12:51:02.639Z,23.94
2022-08-08T12:51:50.237Z,23.91
2022-08-08T12:52:36.290Z,23.92
2022-08-08T12:53:20.796Z,23.91
2022-08-08T12:54:00.273Z,23.95
2022-08-08T12:54:40.774Z,23.97
2022-08-08T12:55:35.399Z,23.96
2022-08-08T12:56:23.848Z,23.96
2022-08-08T12:57:02.883Z,23.97
2022-08-08T12:57:49.633Z,23.93
2022-08-08T12:58:47.338Z,23.90
2022-08-08T12:59:44.898Z,23.94
2022-08-08T13:00:33.969Z,23.94
2022-08-08T13:01:24.239Z,23.97
2022-08-08T13:02:16.306Z,23.96
2022-08-08T13:03:00.786Z,23.92
2022-08-08T13:03:44.621Z,23.93
2022-08-08T13:04:33.005Z,23.90
2022-08-08T13:05:25.957Z,23.91
2022-08-08T13:06:14.430Z,23.89
2022-08-08T13:06:55.854Z,23.93
2022-08-08T13:08:03.379Z,23.94
2022-08-08T13:08:53.418Z,23.94
2022-08-08T13:09:43.082Z,23.94
2022-08-08T13:10:36.588Z,23.94
2022-08-08T13:11:28.509Z,23.94
2022-08-08T13:12:37.142Z,23.98
2022-08-08T13:13:35.318Z,23.94
2022-08-08T13:14:14.438Z,23.96
2022-08-08T13:14:53.303Z,23.90
2022-08-08T13:15:31.393Z,23.90
2022-08-08T13:16:25.859Z,23.93
2022-08-08T13:17:02.894Z,23.96
2022-08-08T13:18:09.013Z,23.94
2022-08-08T13:18:48.767Z,23.98
2022-08-08T13:19:50.032Z,23.98
2022-08-08T13:20:33.503Z,24.01
2022-08-08T13:21:10.834Z,24.01
2022-08-08T13:21:55.614Z,24.00
2022-08-08T13:22:41.541Z,24.01
2022-08-08T13:23:36.215Z,24.05
2022-08-08T13:24:38.633Z,24.05
2022-08-08T13:25:26.930Z,24.04
2022-08-08T13:26:04.292Z,24.04
2022-08-08T13:26:49.292Z,24.03
2022-08-08T13:27:35.464Z,24.04
2022-08-08T13:28:13.311Z,24.03
2022-08-08T13:28:54.488Z,24.00
2022-08-08T13:29:40.679Z,23.99
2022-08-08T13:30:21.149Z,24.01
2022-08-08T13:31:05.067Z,23.99
2022-08-08T13:31:59.167Z,23.95
2022-08-08T13:32:39.968Z,23.97
2022-08-08T13:33:19.488Z,24.00
2022-08-08T13:33:56.769Z,24.01
2022-08-08T13:34:36.631Z,24.01
2022-08-08T13:35:25.205Z,24.01
2022-08-08T13:36:12.219Z,24.06
2022-08-08T13:36:49.586Z,24.04
2022-08-08T13:38:05.653Z,24.04
2022-08-08T13:38:25.137Z,24.01
2022-08-08T13:39:04.627Z,24.03
2022-08-08T13:39:45.882Z,24.00
2022-08-08T13:40:27.281Z,23.99
2022-08-08T13:41:05.696Z,24.00
2022-08-08T13:41:58.357Z,24.01
2022-08-08T13:42:43.839Z,23.99
2022-08-08T13:43:32.279Z,23.98
2022-08-08T13:44:12.814Z,24.00
2022-08-08T13:44:52.451Z,24.02
2022-08-08T13:45:31.738Z,24.04
2022-08-08T13:46:26.652Z,24.06
2022-08-08T13:47:04.586Z,24.04
2022-08-08T13:47:55.823Z,24.07
2022-08-08T13:48:39.328Z,24.05
2022-08-08T13:50:36.901Z,24.06
2022-08-08T13:50:39.877Z,24.02
2022-08-08T13:51:33.626Z,24.07
2022-08-08T13:52:12.107Z,24.11
2022-08-08T13:53:00.422Z,24.08
2022-08-08T13:54:00.675Z,24.09
2022-08-08T13:54:44.319Z,24.11
2022-08-08T13:55:36.673Z,24.13
2022-08-08T13:58:07.355Z,24.11
2022-08-08T13:58:56.074Z,24.09
2022-08-08T13:59:58.503Z,24.09
2022-08-08T14:02:05.359Z,24.08
2022-08-08T14:03:53.316Z,24.08
2022-08-08T14:04:27.764Z,24.07
2022-08-08T14:05:29.868Z,24.06
2022-08-08T14:07:24.629Z,24.09
2022-08-08T14:08:29.666Z,24.11
2022-08-08T14:09:25.103Z,24.12
2022-08-08T14:10:17.159Z,24.14
2022-08-08T14:11:00.879Z,24.12
2022-08-08T14:11:46.734Z,24.15
2022-08-08T14:12:30.640Z,24.12
2022-08-08T14:13:08.327Z,24.13
2022-08-08T14:13:59.480Z,24.16
2022-08-08T14:14:45.944Z,24.15
2022-08-08T14:15:31.367Z,24.16
2022-08-08T14:16:24.795Z,24.15
2022-08-08T14:17:18.125Z,24.21
2022-08-08T14:18:36.871Z,24.20
2022-08-08T14:19:10.703Z,24.18
2022-08-08T14:19:57.449Z,24.20
2022-08-08T14:20:56.038Z,24.19
2022-08-08T14:21:48.948Z,24.16
2022-08-08T14:22:29.697Z,24.15
2022-08-08T14:23:10.378Z,24.15
2022-08-08T14:24:06.985Z,24.11
2022-08-08T14:24:59.693Z,24.15
2022-08-08T14:25:46.049Z,24.16
2022-08-08T14:26:30.305Z,24.16
2022-08-08T14:27:18.633Z,24.21
2022-08-08T14:28:13.761Z,24.20
2022-08-08T14:28:53.153Z,24.18
2022-08-08T14:29:30.949Z,24.19
2022-08-08T14:30:18.328Z,24.20
2022-08-08T14:31:07.745Z,24.18
2022-08-08T14:32:12.840Z,24.22
2022-08-08T14:32:53.464Z,24.15
2022-08-08T14:33:34.261Z,24.16
2022-08-08T14:34:22.912Z,24.13
2022-08-08T14:35:00.134Z,24.17
2022-08-08T14:35:49.706Z,24.12
2022-08-08T14:36:38.750Z,24.15
2022-08-08T14:37:18.543Z,24.16
2022-08-08T14:37:59.767Z,24.17
2022-08-08T14:38:52.488Z,24.19
2022-08-08T14:39:48.491Z,24.17
2022-08-08T14:40:32.282Z,24.21
2022-08-08T14:41:45.469Z,24.20
2022-08-08T14:42:17.152Z,24.22
2022-08-08T14:42:56.874Z,24.23
2022-08-08T14:44:10.695Z,24.25
2022-08-08T14:44:35.269Z,24.22
2022-08-08T14:45:11.752Z,24.23
2022-08-08T14:46:02.195Z,24.26
2022-08-08T14:46:39.497Z,24.27
2022-08-08T14:47:21.564Z,24.28
2022-08-08T14:48:00.490Z,24.27
2022-08-08T14:48:52.245Z,24.27
2022-08-08T14:50:06.559Z,24.28
2022-08-08T14:50:37.929Z,24.29
2022-08-08T14:51:17.902Z,24.22
2022-08-08T14:52:25.498Z,24.23
2022-08-08T14:53:13.499Z,24.23
2022-08-08T14:53:54.999Z,24.22
2022-08-08T14:54:29.277Z,24.22
2022-08-08T14:55:01.201Z,24.28
2022-08-08T14:55:35.536Z,24.27
2022-08-08T14:56:14.039Z,24.28
2022-08-08T14:56:45.402Z,24.29
2022-08-08T14:57:16.751Z,24.27
2022-08-08T14:58:02.643Z,24.27
2022-08-08T14:58:37.531Z,24.29
2022-08-08T14:59:22.327Z,24.28
2022-08-08T15:00:01.580Z,24.29
2022-08-08T15:00:33.413Z,24.32
2022-08-08T15:01:07.233Z,24.31
2022-08-08T15:01:49.685Z,24.33
2022-08-08T15:02:25.303Z,24.33
2022-08-08T15:03:14.220Z,24.29
2022-08-08T15:03:53.605Z,24.28
2022-08-08T15:04:37.928Z,24.20
2022-08-08T15:05:11.611Z,24.21
2022-08-08T15:05:53.865Z,24.20
2022-08-08T15:06:29.408Z,24.25
2022-08-08T15:07:00.768Z,24.29
2022-08-08T15:07:39.598Z,24.30
2022-08-08T15:08:22.436Z,24.28
2022-08-08T15:09:03.524Z,24.30
2022-08-08T15:09:35.712Z,24.31
2022-08-08T15:10:09.326Z,24.30
2022-08-08T15:10:41.326Z,24.33
2022-08-08T15:11:19.043Z,24.30
2022-08-08T15:11:53.467Z,24.30
2022-08-08T15:12:27.747Z,24.35
2022-08-08T15:12:59.498Z,24.28
2022-08-08T15:13:39.816Z,24.27
2022-08-08T15:14:13.869Z,24.30
2022-08-08T15:14:45.853Z,24.30
2022-08-08T15:15:18.753Z,24.31
2022-08-08T15:16:12.111Z,24.33
2022-08-08T15:16:46.230Z,24.31
2022-08-08T15:17:18.857Z,24.30
2022-08-08T15:17:50.616Z,24.30
2022-08-08T15:18:22.509Z,24.31
2022-08-08T15:19:01.187Z,24.29
2022-08-08T15:19:32.701Z,24.30
2022-08-08T15:20:04.488Z,24.30
2022-08-08T15:20:35.876Z,24.29
2022-08-08T15:21:07.636Z,24.29
2022-08-08T15:21:42.714Z,24.29
2022-08-08T15:22:18.047Z,24.29
2022-08-08T15:22:55.275Z,24.27
2022-08-08T15:23:33.010Z,24.27
2022-08-08T15:24:06.076Z,24.29
2022-08-08T15:24:44.203Z,24.29
2022-08-08T15:25:29.780Z,24.31
2022-08-08T15:26:06.069Z,24.31
2022-08-08T15:26:39.973Z,24.31
2022-08-08T15:27:57.471Z,24.30
2022-08-08T15:28:32.573Z,24.30
2022-08-08T15:28:54.598Z,24.32
2022-08-08T15:29:26.039Z,24.36
2022-08-08T15:29:58.784Z,24.34
2022-08-08T15:30:30.107Z,24.34
2022-08-08T15:31:01.496Z,24.33
2022-08-08T15:32:02.935Z,24.37
2022-08-08T15:32:27.369Z,24.37
2022-08-08T15:33:01.498Z,24.36
2022-08-08T15:33:38.533Z,24.34
2022-08-08T15:34:31.316Z,24.34
2022-08-08T15:35:04.880Z,24.36
2022-08-08T15:35:39.237Z,24.34
2022-08-08T15:36:10.722Z,24.36
2022-08-08T15:36:49.011Z,24.34
2022-08-08T15:37:22.742Z,24.36
2022-08-08T15:37:54.547Z,24.31
2022-08-08T15:38:27.735Z,24.31
2022-08-08T15:38:59.116Z,24.32
2022-08-08T15:39:37.498Z,24.29
2022-08-08T15:40:10.941Z,24.27
2022-08-08T15:40:46.398Z,24.30
2022-08-08T15:41:17.756Z,24.30
2022-08-08T15:41:56.392Z,24.30
2022-08-08T15:42:32.145Z,24.29
2022-08-08T15:43:18.827Z,24.31
2022-08-08T15:44:00.555Z,24.30
2022-08-08T15:44:32.906Z,24.30
2022-08-08T15:45:04.447Z,24.31
2022-08-08T15:45:35.803Z,24.30
2022-08-08T15:46:10.614Z,24.34
2022-08-08T15:46:45.450Z,24.33
2022-08-08T15:47:21.691Z,24.35
2022-08-08T15:48:04.146Z,24.37
2022-08-08T15:48:44.656Z,24.35
2022-08-08T15:49:17.044Z,24.35
2022-08-08T15:49:48.957Z,24.34
2022-08-08T15:50:21.086Z,24.34
2022-08-08T15:50:53.700Z,24.35
2022-08-08T15:51:26.755Z,24.28
2022-08-08T15:52:05.593Z,24.29